Time;durP1;ratioP1;P1;durP2;ratioP2;P2;SDS_P1;SDS_P2;PMS_P1;PMS_P2;Temp;Humidity;BMP_temperature;BMP_pressure;BME280_temperature;BME280_humidity;BME280_pressure;Samples;Min_cycle;Max_cycle;Signal;HPM_P1;HPM_P2
2022/06/26 00:01:29;;;;;;;8.25;4.07;;;19.70;65.40;;;;;;5058672;28;20031;-73
2022/06/26 00:03:54;;;;;;;4.53;4.05;;;19.70;65.40;;;;;;5076765;28;20017;-72
2022/06/26 00:06:20;;;;;;;4.32;3.92;;;19.70;65.50;;;;;;5076532;28;20048;-72
2022/06/26 00:08:46;;;;;;;7.53;4.32;;;19.60;65.90;;;;;;5076625;28;20032;-73
2022/06/26 00:11:11;;;;;;;8.85;4.80;;;19.50;66.50;;;;;;5076528;28;20501;-72
2022/06/26 00:13:37;;;;;;;6.38;4.28;;;19.40;67.00;;;;;;5067292;28;20029;-72
2022/06/26 00:16:03;;;;;;;5.97;4.22;;;19.20;67.20;;;;;;5056451;28;20049;-72
2022/06/26 00:18:29;;;;;;;5.35;4.50;;;19.20;67.20;;;;;;5056477;28;20386;-72
2022/06/26 00:20:54;;;;;;;5.38;4.10;;;19.10;67.30;;;;;;5056420;28;20055;-72
2022/06/26 00:23:20;;;;;;;5.35;4.20;;;19.10;67.20;;;;;;5056300;28;20494;-71
2022/06/26 00:25:46;;;;;;;6.63;4.30;;;19.10;67.00;;;;;;5038365;28;20475;-71
2022/06/26 00:28:11;;;;;;;7.78;4.43;;;19.10;66.50;;;;;;5056124;28;20022;-73
2022/06/26 00:30:37;;;;;;;7.15;4.40;;;19.10;66.30;;;;;;5056270;28;20056;-72
2022/06/26 00:33:03;;;;;;;7.22;4.65;;;19.20;66.00;;;;;;5056164;28;20024;-72
2022/06/26 00:35:29;;;;;;;7.93;3.75;;;19.10;65.80;;;;;;5038132;28;20037;-71
2022/06/26 00:37:55;;;;;;;5.75;4.15;;;19.20;66.00;;;;;;5038099;28;20021;-72
2022/06/26 00:40:22;;;;;;;5.22;4.43;;;19.10;65.50;;;;;;5056166;28;20029;-72
2022/06/26 00:42:47;;;;;;;9.65;4.35;;;19.10;65.50;;;;;;5038024;28;20023;-72
2022/06/26 00:45:13;;;;;;;4.78;4.20;;;19.10;65.60;;;;;;5055934;28;20547;-72
2022/06/26 00:47:39;;;;;;;5.03;4.55;;;19.10;65.40;;;;;;5055952;28;20021;-71
2022/06/26 00:50:07;;;;;;;4.80;4.30;;;19.10;65.40;;;;;;5037591;28;20168;-71
2022/06/26 00:52:34;;;;;;;4.53;4.13;;;19.10;65.70;;;;;;5055789;28;20086;-71
2022/06/26 00:54:59;;;;;;;8.40;4.68;;;19.10;66.70;;;;;;5059958;28;20033;-72
2022/06/26 00:57:26;;;;;;;4.18;3.78;;;19.00;66.30;;;;;;5075644;28;20024;-73
2022/06/26 00:59:51;;;;;;;7.47;4.20;;;18.90;66.90;;;;;;5075705;28;20355;-71
2022/06/26 01:02:17;;;;;;;7.20;4.88;;;18.70;67.60;;;;;;5075574;28;20016;-72
2022/06/26 01:04:43;;;;;;;5.15;4.53;;;18.70;67.30;;;;;;5075571;28;20024;-72
2022/06/26 01:07:10;;;;;;;5.22;4.13;;;18.70;67.60;;;;;;5075353;28;20049;-72
2022/06/26 01:09:36;;;;;;;4.80;4.35;;;18.60;67.60;;;;;;5075498;28;20017;-72
2022/06/26 01:12:01;;;;;;;5.43;4.25;;;18.60;67.70;;;;;;5075350;28;20381;-72
2022/06/26 01:14:29;;;;;;;4.47;4.00;;;18.60;67.90;;;;;;5058889;28;20033;-72
2022/06/26 01:16:55;;;;;;;5.00;4.10;;;18.60;67.70;;;;;;5055349;28;20031;-71
2022/06/26 01:19:21;;;;;;;10.20;4.80;;;18.50;68.10;;;;;;5055186;28;20111;-71
2022/06/26 01:21:46;;;;;;;4.82;4.28;;;18.50;68.40;;;;;;5055281;28;20530;-72
2022/06/26 01:24:13;;;;;;;4.93;4.30;;;18.50;68.20;;;;;;5055203;28;20049;-72
2022/06/26 01:26:40;;;;;;;5.32;4.18;;;18.50;68.30;;;;;;5037111;28;20032;-71
2022/06/26 01:29:06;;;;;;;6.20;4.57;;;18.50;68.70;;;;;;5055121;28;20025;-71
2022/06/26 01:31:36;;;;;;;6.38;4.60;;;18.50;69.30;;;;;;5055047;28;20027;-72
2022/06/26 01:34:07;;;;;;;7.40;4.43;;;18.60;69.50;;;;;;5055634;28;20083;-72
2022/06/26 01:36:33;;;;;;;4.78;4.38;;;18.50;69.70;;;;;;5055154;28;20039;-71
2022/06/26 01:38:58;;;;;;;6.18;4.30;;;18.50;70.00;;;;;;5036975;28;20025;-72
2022/06/26 01:41:24;;;;;;;6.72;4.53;;;18.40;70.00;;;;;;5054944;28;20035;-72
2022/06/26 01:43:50;;;;;;;5.32;4.28;;;18.40;70.20;;;;;;5054794;28;20466;-71
2022/06/26 01:46:16;;;;;;;6.28;4.75;;;18.40;71.20;;;;;;5054841;28;20025;-72
2022/06/26 01:48:44;;;;;;;4.93;4.43;;;18.30;72.50;;;;;;5054676;28;20036;-72
2022/06/26 01:51:10;;;;;;;5.82;5.18;;;18.20;73.30;;;;;;5054682;28;20021;-71
2022/06/26 01:53:36;;;;;;;7.03;4.70;;;18.10;73.80;;;;;;5054532;28;20021;-72
2022/06/26 01:56:03;;;;;;;5.32;4.80;;;18.10;74.60;;;;;;5067822;28;20109;-71
2022/06/26 01:58:29;;;;;;;5.50;5.00;;;17.90;75.20;;;;;;5074428;28;20021;-72
2022/06/26 02:00:55;;;;;;;11.10;5.05;;;17.90;75.60;;;;;;5073872;28;20020;-72
2022/06/26 02:03:22;;;;;;;7.30;5.57;;;17.70;75.80;;;;;;5074279;28;20090;-72
2022/06/26 02:05:49;;;;;;;7.80;5.32;;;17.60;75.70;;;;;;5056466;28;20136;-71
2022/06/26 02:08:14;;;;;;;6.35;5.00;;;17.50;76.20;;;;;;5056343;28;20504;-72
2022/06/26 02:13:37;;;;;;;6.03;5.05;;;17.40;77.00;;;;;;5066439;28;20529;-72
2022/06/26 02:16:05;;;;;;;6.32;5.18;;;17.30;77.70;;;;;;5054356;28;20170;-71
2022/06/26 02:18:31;;;;;;;5.90;5.25;;;17.30;78.00;;;;;;5054065;28;20028;-71
2022/06/26 02:20:56;;;;;;;6.70;4.78;;;17.30;78.70;;;;;;5054153;28;20021;-72
2022/06/26 02:23:22;;;;;;;6.88;6.05;;;17.30;79.40;;;;;;5054045;28;20029;-72
2022/06/26 02:25:48;;;;;;;6.57;5.25;;;17.40;79.30;;;;;;5054058;28;20390;-71
2022/06/26 02:28:16;;;;;;;9.07;5.25;;;17.30;79.70;;;;;;5036042;28;20498;-72
2022/06/26 02:30:42;;;;;;;5.63;4.90;;;17.30;81.00;;;;;;5053938;28;20032;-71
2022/06/26 02:33:08;;;;;;;5.25;4.80;;;17.20;82.00;;;;;;5036084;28;20044;-72
2022/06/26 02:35:34;;;;;;;7.47;4.75;;;17.10;83.20;;;;;;5053777;28;20557;-72
2022/06/26 02:38:00;;;;;;;8.30;5.88;;;17.00;84.00;;;;;;5053855;28;20479;-73
2022/06/26 02:40:27;;;;;;;6.32;5.43;;;17.00;84.80;;;;;;5053684;28;20029;-71
2022/06/26 02:42:53;;;;;;;5.88;5.28;;;16.90;85.20;;;;;;5053851;28;20028;-71
2022/06/26 02:45:19;;;;;;;7.07;5.00;;;16.80;85.90;;;;;;5053631;28;20036;-71
2022/06/26 02:47:46;;;;;;;5.95;5.35;;;16.80;87.00;;;;;;5035813;28;20028;-72
2022/06/26 02:50:12;;;;;;;22.00;5.75;;;16.80;87.30;;;;;;5053519;28;20096;-71
2022/06/26 02:52:38;;;;;;;5.97;5.28;;;16.80;87.00;;;;;;5053660;28;20021;-73
2022/06/26 02:55:05;;;;;;;6.25;5.65;;;16.60;88.30;;;;;;5041064;28;20047;-72
2022/06/26 02:57:31;;;;;;;6.80;5.93;;;16.40;90.70;;;;;;5073443;28;20024;-72
2022/06/26 02:59:56;;;;;;;7.72;4.97;;;16.30;91.80;;;;;;5055498;28;20028;-72
2022/06/26 03:02:24;;;;;;;6.50;5.43;;;16.30;93.00;;;;;;5055591;28;20032;-72
2022/06/26 03:04:51;;;;;;;6.00;5.40;;;16.30;94.10;;;;;;5073192;28;20024;-71
2022/06/26 03:07:17;;;;;;;6.70;5.43;;;16.20;94.60;;;;;;5073583;28;20021;-72
2022/06/26 03:09:43;;;;;;;7.38;5.68;;;16.20;95.30;;;;;;5073399;28;20390;-71
2022/06/26 03:12:09;;;;;;;8.18;5.95;;;16.20;96.50;;;;;;5073395;28;20028;-72
2022/06/26 03:14:35;;;;;;;6.38;5.53;;;16.20;96.90;;;;;;5055113;28;20107;-73
2022/06/26 03:17:01;;;;;;;6.78;5.47;;;16.20;96.70;;;;;;5053383;28;20100;-71
2022/06/26 03:19:27;;;;;;;9.05;5.60;;;16.20;96.70;;;;;;5053202;28;20040;-72
2022/06/26 03:21:53;;;;;;;7.32;6.40;;;16.30;97.10;;;;;;5053379;28;20021;-72
2022/06/26 03:24:19;;;;;;;6.70;5.40;;;16.40;96.30;;;;;;5053134;28;20053;-72
2022/06/26 03:26:45;;;;;;;6.53;5.35;;;16.60;95.80;;;;;;5053222;28;20025;-72
2022/06/26 03:29:11;;;;;;;12.10;6.35;;;16.70;94.60;;;;;;5053172;28;20514;-71
2022/06/26 03:31:37;;;;;;;5.30;4.80;;;16.80;93.60;;;;;;5035329;28;20045;-72
2022/06/26 03:34:03;;;;;;;5.50;4.78;;;17.00;91.90;;;;;;5053070;28;20071;-72
2022/06/26 03:36:29;;;;;;;9.45;5.32;;;17.20;90.60;;;;;;5053180;28;20057;-71
2022/06/26 03:38:56;;;;;;;8.02;5.18;;;17.40;88.90;;;;;;5053206;28;20017;-72
2022/06/26 03:41:22;;;;;;;9.18;5.15;;;17.70;88.40;;;;;;5053088;28;20028;-71
2022/06/26 03:43:48;;;;;;;6.35;5.07;;;17.90;85.90;;;;;;5053153;28;20088;-71
2022/06/26 03:46:14;;;;;;;5.63;5.00;;;18.10;83.90;;;;;;5052930;28;20028;-71
2022/06/26 03:48:40;;;;;;;5.93;5.20;;;18.40;82.70;;;;;;5035253;28;20033;-72
2022/06/26 03:51:06;;;;;;;7.22;5.10;;;18.70;82.00;;;;;;5035092;28;20112;-71
2022/06/26 03:53:32;;;;;;;5.70;5.03;;;18.90;79.30;;;;;;5053294;28;20096;-72
2022/06/26 03:55:58;;;;;;;7.72;4.95;;;19.20;77.40;;;;;;5048176;28;20074;-73
2022/06/26 03:58:24;;;;;;;5.63;5.10;;;19.50;76.40;;;;;;5072967;28;20025;-72
2022/06/26 04:00:50;;;;;;;6.25;5.22;;;19.70;73.80;;;;;;5072860;28;20024;-72
2022/06/26 04:03:17;;;;;;;7.47;5.40;;;19.80;71.20;;;;;;5054945;28;20016;-72
2022/06/26 04:05:42;;;;;;;7.07;5.43;;;19.90;70.50;;;;;;5072577;28;20076;-72
2022/06/26 04:08:09;;;;;;;7.53;5.78;;;20.00;69.70;;;;;;5073002;28;20410;-72
2022/06/26 04:10:35;;;;;;;6.72;5.07;;;20.10;69.90;;;;;;5072779;28;20025;-72
2022/06/26 04:13:09;;;;;;;5.55;4.88;;;20.10;69.60;;;;;;5067444;28;20083;-72
2022/06/26 04:15:36;;;;;;;7.28;4.93;;;20.20;68.90;;;;;;5052593;28;20078;-73
2022/06/26 04:18:03;;;;;;;6.45;5.38;;;20.30;69.30;;;;;;5052791;28;20048;-72
2022/06/26 04:20:29;;;;;;;9.70;5.38;;;20.30;68.30;;;;;;5052682;28;20078;-71
2022/06/26 04:23:07;;;;;;;6.25;4.95;;;20.40;68.00;;;;;;5034959;28;20033;-71
2022/06/26 04:25:35;;;;;;;8.23;4.88;;;20.50;67.40;;;;;;5055011;28;20104;-72
2022/06/26 04:28:02;;;;;;;5.45;4.88;;;20.60;67.00;;;;;;5056229;28;20564;-72
2022/06/26 04:30:27;;;;;;;7.18;5.30;;;20.60;66.70;;;;;;5056093;28;20474;-72
2022/06/26 04:32:53;;;;;;;6.55;5.50;;;20.70;66.90;;;;;;5056231;28;20017;-72
2022/06/26 04:35:19;;;;;;;6.10;4.82;;;20.80;67.50;;;;;;5055998;28;20044;-72
2022/06/26 04:37:46;;;;;;;6.55;5.90;;;20.80;67.20;;;;;;5056210;28;20025;-72
2022/06/26 04:40:12;;;;;;;7.85;5.45;;;20.80;67.70;;;;;;5038020;28;20391;-72
2022/06/26 04:42:39;;;;;;;6.22;5.07;;;20.80;67.10;;;;;;5038135;28;20032;-72
2022/06/26 04:45:06;;;;;;;8.15;5.15;;;20.80;67.30;;;;;;5055867;28;20029;-72
2022/06/26 04:47:32;;;;;;;5.93;5.03;;;20.80;67.70;;;;;;5055955;28;20017;-73
2022/06/26 04:49:57;;;;;;;10.77;5.32;;;20.90;68.00;;;;;;5055810;28;20021;-71
2022/06/26 04:52:23;;;;;;;5.35;4.80;;;20.90;68.50;;;;;;5037939;28;20475;-72
2022/06/26 04:54:50;;;;;;;7.65;5.47;;;20.90;68.50;;;;;;5059832;28;20040;-72
2022/06/26 04:57:16;;;;;;;6.55;5.88;;;21.00;66.60;;;;;;5075652;28;20049;-72
2022/06/26 04:59:43;;;;;;;7.35;5.20;;;21.10;66.40;;;;;;5057734;28;20382;-72
2022/06/26 05:02:10;;;;;;;6.75;5.50;;;21.10;66.90;;;;;;5075616;28;20021;-73
2022/06/26 05:04:36;;;;;;;5.25;4.75;;;21.20;65.60;;;;;;5057743;28;20074;-72
2022/06/26 05:07:02;;;;;;;8.20;4.78;;;21.30;66.10;;;;;;5075586;28;20059;-72
2022/06/26 05:09:28;;;;;;;6.82;4.85;;;21.30;65.50;;;;;;5075651;28;20024;-72
2022/06/26 05:11:54;;;;;;;7.55;4.97;;;21.40;65.80;;;;;;5075472;28;20066;-71
2022/06/26 05:14:21;;;;;;;8.43;5.00;;;21.40;64.80;;;;;;5058636;28;20037;-71
2022/06/26 05:16:47;;;;;;;8.50;5.60;;;21.50;64.30;;;;;;5055315;28;20028;-72
2022/06/26 05:19:13;;;;;;;6.68;4.75;;;21.60;64.40;;;;;;5055415;28;20025;-73
2022/06/26 05:21:39;;;;;;;4.78;4.22;;;21.60;64.00;;;;;;5055184;28;20109;-72
2022/06/26 05:24:05;;;;;;;7.07;5.20;;;21.80;64.20;;;;;;5037413;28;20060;-73
2022/06/26 05:26:31;;;;;;;5.32;4.78;;;22.00;63.90;;;;;;5055049;28;20506;-72
2022/06/26 05:28:57;;;;;;;6.35;4.43;;;22.10;62.60;;;;;;5037305;28;20035;-72
2022/06/26 05:31:23;;;;;;;9.82;3.85;;;22.30;61.90;;;;;;5055187;28;20031;-73
2022/06/26 05:33:49;;;;;;;5.30;4.30;;;22.40;61.50;;;;;;5055036;28;20017;-72
2022/06/26 05:36:15;;;;;;;6.97;4.57;;;22.50;61.70;;;;;;5053698;28;20399;-72
2022/06/26 05:38:41;;;;;;;6.95;4.97;;;22.60;61.80;;;;;;5054987;28;20028;-72
2022/06/26 05:41:07;;;;;;;7.28;4.75;;;22.70;62.20;;;;;;5036975;28;20059;-72
2022/06/26 05:43:33;;;;;;;5.85;4.38;;;22.90;61.70;;;;;;5054923;28;20021;-72
2022/06/26 05:45:59;;;;;;;8.00;4.82;;;23.00;61.40;;;;;;5054787;28;20029;-72
2022/06/26 05:48:26;;;;;;;5.60;4.53;;;23.10;60.10;;;;;;5054778;28;20040;-72
2022/06/26 05:50:51;;;;;;;4.95;4.22;;;23.20;59.40;;;;;;5054686;28;20021;-72
2022/06/26 05:53:18;;;;;;;6.38;4.47;;;23.30;60.20;;;;;;5054640;28;20021;-73
2022/06/26 05:55:43;;;;;;;7.57;5.13;;;23.50;60.20;;;;;;5066499;28;20386;-72
2022/06/26 05:58:10;;;;;;;6.72;4.85;;;23.60;58.20;;;;;;5074593;28;20036;-72
2022/06/26 06:00:36;;;;;;;5.65;4.50;;;23.70;57.40;;;;;;5074530;28;20027;-72
2022/06/26 06:03:03;;;;;;;5.35;4.57;;;23.70;57.90;;;;;;5074411;28;20098;-72
2022/06/26 06:05:29;;;;;;;7.22;4.38;;;23.80;57.60;;;;;;5056332;28;20557;-72
2022/06/26 06:07:55;;;;;;;7.57;4.30;;;23.90;58.20;;;;;;5056334;28;20115;-73
2022/06/26 06:10:22;;;;;;;6.28;4.00;;;24.00;57.50;;;;;;5074242;28;20517;-72
2022/06/26 06:12:49;;;;;;;6.30;4.43;;;24.10;57.50;;;;;;5069971;28;20437;-73
2022/06/26 06:15:15;;;;;;;6.00;4.25;;;24.20;57.20;;;;;;5054015;28;20119;-72
2022/06/26 06:17:40;;;;;;;5.25;3.85;;;24.30;57.20;;;;;;5054183;28;20487;-72
2022/06/26 06:20:12;;;;;;;4.45;4.05;;;24.30;57.10;;;;;;5054165;28;20029;-72
2022/06/26 06:22:39;;;;;;;6.20;4.63;;;24.40;57.50;;;;;;5036209;28;20467;-72
2022/06/26 06:25:05;;;;;;;6.32;4.10;;;24.60;57.60;;;;;;5054098;28;20797;-72
2022/06/26 06:27:31;;;;;;;6.20;4.07;;;24.80;57.90;;;;;;5053865;28;20546;-72
2022/06/26 06:29:57;;;;;;;6.68;4.70;;;24.90;57.00;;;;;;5053978;28;20103;-72
2022/06/26 06:32:22;;;;;;;4.97;4.13;;;24.90;53.60;;;;;;5053896;28;20021;-72
2022/06/26 06:34:48;;;;;;;10.05;4.18;;;25.00;55.20;;;;;;5053910;28;20390;-72
2022/06/26 06:37:14;;;;;;;8.05;3.90;;;25.20;54.90;;;;;;5053838;28;20056;-73
2022/06/26 06:39:39;;;;;;;6.07;4.05;;;25.40;54.00;;;;;;5053835;28;20021;-72
2022/06/26 06:42:05;;;;;;;4.68;3.80;;;25.50;52.00;;;;;;5053751;28;20029;-73
2022/06/26 06:44:31;;;;;;;3.60;3.13;;;25.70;50.60;;;;;;5035891;28;20025;-72
2022/06/26 06:46:56;;;;;;;4.70;3.42;;;25.80;50.90;;;;;;5035632;28;20111;-72
2022/06/26 06:49:22;;;;;;;7.68;3.85;;;25.90;49.80;;;;;;5053538;28;20025;-72
2022/06/26 06:51:48;;;;;;;5.70;3.60;;;25.90;50.80;;;;;;5053662;28;20052;-72
2022/06/26 06:54:13;;;;;;;4.35;3.30;;;26.00;51.90;;;;;;5035635;28;20510;-72
2022/06/26 06:56:39;;;;;;;5.95;4.20;;;26.10;51.50;;;;;;5073665;28;20047;-72
2022/06/26 06:59:05;;;;;;;4.30;3.75;;;26.10;49.40;;;;;;5073494;28;20024;-73
2022/06/26 07:01:31;;;;;;;4.20;3.20;;;26.20;48.10;;;;;;5073583;28;20029;-72
2022/06/26 07:03:56;;;;;;;5.28;3.30;;;26.20;48.20;;;;;;5073458;28;20090;-72
2022/06/26 07:06:22;;;;;;;4.57;3.50;;;26.40;48.00;;;;;;5073472;28;20076;-72
2022/06/26 07:08:48;;;;;;;5.13;3.40;;;26.40;47.90;;;;;;5073469;28;20103;-73
2022/06/26 07:11:14;;;;;;;5.65;3.28;;;26.60;48.30;;;;;;5073396;28;20024;-72
2022/06/26 07:13:39;;;;;;;2.92;2.72;;;26.70;46.80;;;;;;5061762;28;20025;-72
2022/06/26 07:16:05;;;;;;;4.88;3.33;;;26.90;46.60;;;;;;5053297;28;20047;-72
2022/06/26 07:18:31;;;;;;;4.07;2.95;;;26.90;45.80;;;;;;5053305;28;20029;-72
2022/06/26 07:20:57;;;;;;;9.57;3.53;;;26.90;46.40;;;;;;5053469;28;20021;-72
2022/06/26 07:23:22;;;;;;;3.70;3.33;;;27.00;46.80;;;;;;5053277;28;20082;-73
2022/06/26 07:25:48;;;;;;;5.55;3.20;;;27.00;46.00;;;;;;5035409;28;20025;-72
2022/06/26 07:28:14;;;;;;;4.05;3.22;;;26.90;45.10;;;;;;5053053;28;20409;-72
2022/06/26 07:30:40;;;;;;;5.45;3.70;;;27.00;45.60;;;;;;5053204;28;20169;-72
2022/06/26 07:34:12;;;;;;;5.88;3.25;;;27.10;46.30;;;;;;5053167;28;20021;-72
2022/06/26 07:35:52;;;;;;;6.50;3.15;;;27.10;45.70;;;;;;5052988;28;20033;-73
2022/06/26 07:38:18;;;;;;;3.85;3.42;;;27.10;44.40;;;;;;5053147;28;20025;-73
2022/06/26 07:40:44;;;;;;;5.90;3.13;;;27.20;44.30;;;;;;5053141;28;20025;-73
2022/06/26 07:43:09;;;;;;;7.18;2.95;;;27.20;44.30;;;;;;5053077;28;20017;-73
2022/06/26 07:45:35;;;;;;;4.93;3.50;;;27.10;44.50;;;;;;5053083;28;20035;-73
2022/06/26 07:48:01;;;;;;;3.50;3.20;;;27.20;44.50;;;;;;5053067;28;20029;-72
2022/06/26 07:50:28;;;;;;;4.78;3.33;;;27.30;44.20;;;;;;5052998;28;20036;-72
2022/06/26 07:52:54;;;;;;;7.53;3.10;;;27.40;44.30;;;;;;5035110;28;20033;-73
2022/06/26 07:55:20;;;;;;;5.88;3.08;;;27.60;45.00;;;;;;5062156;28;20426;-73
2022/06/26 07:57:46;;;;;;;5.53;3.00;;;27.70;44.40;;;;;;5073056;28;20473;-73
2022/06/26 08:00:12;;;;;;;3.30;3.00;;;27.70;43.10;;;;;;5074755;28;20036;-72
2022/06/26 08:02:39;;;;;;;6.70;2.90;;;27.70;43.10;;;;;;5076833;28;20386;-73
2022/06/26 08:05:05;;;;;;;4.10;2.58;;;27.90;43.70;;;;;;5058460;28;20074;-73
2022/06/26 08:07:31;;;;;;;3.33;2.50;;;27.70;41.90;;;;;;5076763;28;20597;-72
2022/06/26 08:09:57;;;;;;;3.90;3.03;;;27.60;41.30;;;;;;5058548;28;20127;-72
2022/06/26 08:12:22;;;;;;;4.57;2.58;;;27.60;42.20;;;;;;5057320;28;20024;-75
2022/06/26 08:14:49;;;;;;;3.03;2.75;;;27.50;42.00;;;;;;5056265;28;20048;-73
2022/06/26 08:17:15;;;;;;;3.30;2.75;;;27.60;42.20;;;;;;5038643;28;20021;-72
2022/06/26 08:19:41;;;;;;;4.32;2.53;;;27.70;42.40;;;;;;5056316;28;20475;-72
2022/06/26 08:22:06;;;;;;;2.95;2.75;;;27.80;41.80;;;;;;5056394;28;20378;-73
2022/06/26 08:24:33;;;;;;;3.90;2.80;;;27.90;42.50;;;;;;5056277;28;20028;-72
2022/06/26 08:27:00;;;;;;;4.30;2.80;;;27.80;41.10;;;;;;5056425;28;20029;-73
2022/06/26 08:29:26;;;;;;;3.05;2.72;;;27.70;41.10;;;;;;5056041;28;20070;-73
2022/06/26 08:31:52;;;;;;;4.70;2.63;;;27.80;43.20;;;;;;5056247;28;20395;-72
2022/06/26 08:34:19;;;;;;;5.28;2.60;;;27.90;42.10;;;;;;5055967;28;20033;-72
2022/06/26 08:36:44;;;;;;;4.05;2.70;;;28.10;41.10;;;;;;5056255;28;20033;-73
2022/06/26 08:39:10;;;;;;;4.97;2.65;;;28.00;41.80;;;;;;5055991;28;20029;-72
2022/06/26 08:41:46;;;;;;;4.00;2.55;;;28.20;41.70;;;;;;5055964;28;20147;-73
2022/06/26 08:44:12;;;;;;;3.70;2.88;;;28.10;41.30;;;;;;5055708;28;20033;-72
2022/06/26 08:46:42;;;;;;;3.10;2.83;;;28.20;41.60;;;;;;5055676;28;20025;-72
2022/06/26 08:49:16;;;;;;;3.58;3.25;;;28.10;41.00;;;;;;5037864;28;20532;-73
2022/06/26 08:51:44;;;;;;;3.10;2.80;;;28.30;40.80;;;;;;5055766;28;20103;-73
2022/06/26 08:54:12;;;;;;;6.07;2.83;;;28.30;41.70;;;;;;5055425;28;20625;-72
2022/06/26 08:56:41;;;;;;;3.42;2.85;;;28.40;41.40;;;;;;5057958;28;20032;-72
2022/06/26 08:59:10;;;;;;;2.88;2.53;;;28.30;41.60;;;;;;5057262;28;20035;-72
2022/06/26 09:01:38;;;;;;;4.53;2.95;;;28.40;42.60;;;;;;5057459;28;20106;-72
2022/06/26 09:04:05;;;;;;;3.80;2.90;;;28.50;41.80;;;;;;5075041;28;20021;-72
2022/06/26 09:06:39;;;;;;;3.25;2.78;;;28.50;41.40;;;;;;5075066;28;20139;-72
2022/06/26 09:09:18;;;;;;;2.75;2.55;;;28.50;42.10;;;;;;5075697;28;20036;-73
2022/06/26 09:11:45;;;;;;;4.57;3.08;;;28.60;42.10;;;;;;5073605;28;20374;-73
2022/06/26 09:14:12;;;;;;;3.17;2.97;;;28.70;41.40;;;;;;5040479;28;20037;-73
2022/06/26 09:16:41;;;;;;;3.00;2.80;;;28.40;40.50;;;;;;5055278;28;20025;-72
2022/06/26 09:19:12;;;;;;;3.15;2.85;;;28.20;41.60;;;;;;5037596;28;20083;-72
2022/06/26 09:21:38;;;;;;;4.82;2.90;;;28.60;42.30;;;;;;5037344;28;20498;-73
2022/06/26 09:24:10;;;;;;;5.28;3.17;;;28.70;42.10;;;;;;5055362;28;20471;-72
2022/06/26 09:26:36;;;;;;;3.50;2.63;;;28.80;42.20;;;;;;5055220;28;20028;-72
2022/06/26 09:29:28;;;;;;;3.05;2.53;;;28.90;41.40;;;;;;5055172;28;20112;-73
2022/06/26 09:31:53;;;;;;;3.05;2.38;;;28.90;41.00;;;;;;5050477;28;20029;-72
2022/06/26 09:34:24;;;;;;;4.20;2.97;;;29.10;40.90;;;;;;5055074;28;20036;-73
2022/06/26 09:37:02;;;;;;;4.35;2.53;;;28.90;40.60;;;;;;5055037;28;20032;-72
2022/06/26 09:39:30;;;;;;;3.10;2.80;;;29.00;41.40;;;;;;5054970;28;20017;-72
2022/06/26 09:41:56;;;;;;;3.53;2.97;;;29.00;42.10;;;;;;5037032;28;20028;-73
2022/06/26 09:44:22;;;;;;;7.32;3.15;;;29.00;41.70;;;;;;5055227;28;20068;-73
2022/06/26 09:46:49;;;;;;;4.90;2.95;;;29.00;40.90;;;;;;5054823;28;20021;-73
2022/06/26 09:49:17;;;;;;;4.05;2.45;;;28.90;39.50;;;;;;5054764;28;20021;-72
2022/06/26 09:51:47;;;;;;;3.30;2.58;;;28.90;38.40;;;;;;5054608;28;20032;-72
2022/06/26 09:54:14;;;;;;;8.80;2.88;;;29.00;39.60;;;;;;5037810;28;20033;-73
2022/06/26 09:56:40;;;;;;;4.15;2.60;;;29.40;39.80;;;;;;5074578;28;20027;-73
2022/06/26 09:59:07;;;;;;;4.63;2.58;;;29.40;40.80;;;;;;5056670;28;20170;-72
2022/06/26 10:07:06;;;;;;;2.65;2.45;;;29.50;39.60;;;;;;5074294;28;20453;-72
2022/06/26 10:09:34;;;;;;;3.80;2.95;;;29.50;38.30;;;;;;5074344;28;20056;-73
2022/06/26 10:12:04;;;;;;;3.28;2.50;;;29.80;38.00;;;;;;5056084;28;20107;-73
2022/06/26 10:14:38;;;;;;;3.28;2.65;;;29.90;37.30;;;;;;5054702;28;20475;-73
2022/06/26 10:17:25;;;;;;;5.10;2.55;;;29.80;38.90;;;;;;5036389;28;20021;-72
2022/06/26 10:19:56;;;;;;;11.25;2.45;;;29.70;38.90;;;;;;5054206;28;20017;-73
2022/06/26 10:22:21;;;;;;;3.05;2.60;;;30.00;38.50;;;;;;5053528;28;20021;-73
2022/06/26 10:24:55;;;;;;;2.72;2.47;;;30.20;38.90;;;;;;5054114;28;20032;-72
2022/06/26 10:27:29;;;;;;;3.83;2.53;;;29.90;37.00;;;;;;5053989;28;20032;-73
2022/06/26 10:30:15;;;;;;;4.05;2.72;;;29.90;38.10;;;;;;5036174;28;20028;-73
2022/06/26 10:32:42;;;;;;;4.53;2.80;;;29.80;38.60;;;;;;5036083;28;20021;-73
2022/06/26 10:35:09;;;;;;;3.65;2.47;;;29.80;38.10;;;;;;5053861;28;20040;-72
2022/06/26 10:37:45;;;;;;;2.78;2.22;;;30.00;38.30;;;;;;5035896;28;20052;-73
2022/06/26 10:43:11;;;;;;;3.67;2.72;;;29.90;37.90;;;;;;5054381;28;20158;-72
2022/06/26 10:45:39;;;;;;;5.78;2.28;;;29.80;37.90;;;;;;5053800;28;20032;-73
2022/06/26 10:48:16;;;;;;;3.08;2.50;;;29.90;37.50;;;;;;5053660;28;20482;-73
2022/06/26 10:50:43;;;;;;;6.90;3.45;;;29.80;37.80;;;;;;5053768;28;20024;-73
2022/06/26 10:53:19;;;;;;;4.60;2.90;;;29.90;37.80;;;;;;5053604;28;20502;-73
2022/06/26 10:55:50;;;;;;;3.15;2.60;;;29.90;36.90;;;;;;5067350;28;20037;-73
2022/06/26 10:58:23;;;;;;;3.58;3.03;;;30.10;37.00;;;;;;5055560;28;20023;-73
2022/06/26 11:00:49;;;;;;;5.78;2.55;;;30.20;37.80;;;;;;5073638;28;20374;-73
2022/06/26 11:03:17;;;;;;;5.40;3.10;;;30.30;37.60;;;;;;5073477;28;20454;-72
2022/06/26 11:06:01;;;;;;;4.57;3.03;;;30.30;37.80;;;;;;5051989;28;20376;-73
2022/06/26 11:08:31;;;;;;;6.30;2.63;;;30.10;38.30;;;;;;5053566;28;20028;-73
2022/06/26 11:11:03;;;;;;;2.70;2.50;;;30.00;38.10;;;;;;5052139;28;20053;-73
2022/06/26 11:13:29;;;;;;;3.40;3.08;;;30.10;37.00;;;;;;5041938;28;20021;-73
2022/06/26 11:15:55;;;;;;;4.95;2.40;;;30.10;38.20;;;;;;5032044;28;20113;-73
2022/06/26 11:18:20;;;;;;;2.65;2.45;;;30.20;37.60;;;;;;5033383;28;20060;-73
2022/06/26 11:20:52;;;;;;;8.35;3.35;;;30.30;37.90;;;;;;5033406;28;20426;-73
2022/06/26 11:23:26;;;;;;;3.83;2.33;;;30.10;38.00;;;;;;5032076;28;20029;-72
2022/06/26 11:26:01;;;;;;;2.67;2.40;;;29.90;36.90;;;;;;5033485;28;20060;-72
2022/06/26 11:28:35;;;;;;;2.65;2.47;;;29.90;37.20;;;;;;5031837;28;20392;-73
2022/06/26 11:31:03;;;;;;;4.07;2.70;;;29.80;37.00;;;;;;5033465;28;20531;-73
2022/06/26 11:33:31;;;;;;;4.50;2.75;;;29.50;37.10;;;;;;5034084;28;20071;-73
2022/06/26 11:36:06;;;;;;;2.92;2.40;;;29.60;37.80;;;;;;5035985;28;20026;-73
2022/06/26 11:38:32;;;;;;;3.10;2.88;;;29.80;38.80;;;;;;5037304;28;20028;-73
2022/06/26 11:41:03;;;;;;;4.10;2.78;;;29.80;37.50;;;;;;5036015;28;20483;-72
2022/06/26 11:43:29;;;;;;;6.15;2.33;;;30.00;38.80;;;;;;5035998;28;20438;-72
2022/06/26 11:46:00;;;;;;;3.42;2.10;;;30.00;38.10;;;;;;5035843;28;20032;-72
2022/06/26 11:48:26;;;;;;;3.13;2.65;;;29.70;38.50;;;;;;5037053;28;20030;-73
2022/06/26 11:50:54;;;;;;;5.07;2.78;;;29.60;38.20;;;;;;5037059;28;20617;-73
2022/06/26 11:53:26;;;;;;;4.13;2.50;;;29.70;38.00;;;;;;5037009;28;20029;-72
2022/06/26 11:55:54;;;;;;;2.58;2.45;;;29.70;38.60;;;;;;5051877;28;20029;-73
2022/06/26 11:58:23;;;;;;;4.80;2.90;;;29.80;38.30;;;;;;5055493;28;20487;-72
2022/06/26 12:00:49;;;;;;;4.97;2.90;;;29.90;37.30;;;;;;5056803;28;20017;-73
2022/06/26 12:03:15;;;;;;;3.88;2.67;;;30.00;37.90;;;;;;5056750;28;20024;-73
2022/06/26 12:05:43;;;;;;;4.82;2.60;;;30.10;37.10;;;;;;5064290;28;20060;-73
2022/06/26 12:08:19;;;;;;;4.43;2.72;;;29.80;37.10;;;;;;5058731;28;20051;-73
2022/06/26 12:10:50;;;;;;;4.47;2.78;;;30.10;38.90;;;;;;5059069;28;20025;-73
2022/06/26 12:13:30;;;;;;;2.42;2.22;;;30.20;38.70;;;;;;5066373;28;20016;-73
2022/06/26 12:16:07;;;;;;;4.03;2.60;;;30.40;38.70;;;;;;5056473;28;20029;-73
2022/06/26 12:18:41;;;;;;;4.05;2.90;;;30.10;38.20;;;;;;5038543;28;20108;-72
2022/06/26 12:21:23;;;;;;;5.07;2.92;;;30.00;39.00;;;;;;5056681;28;20028;-73
2022/06/26 12:23:52;;;;;;;4.45;2.55;;;30.00;39.00;;;;;;5056402;28;20032;-72
2022/06/26 12:26:22;;;;;;;3.95;2.67;;;29.90;38.30;;;;;;5056303;28;20025;-72
2022/06/26 12:28:49;;;;;;;2.90;2.40;;;29.90;37.90;;;;;;5056153;28;20098;-73
2022/06/26 12:31:16;;;;;;;3.33;2.60;;;30.00;37.80;;;;;;5056229;28;20029;-73
2022/06/26 12:33:42;;;;;;;3.60;2.45;;;30.20;37.70;;;;;;5038204;28;20486;-73
2022/06/26 12:36:08;;;;;;;3.20;2.90;;;30.50;37.60;;;;;;5056150;28;20060;-73
2022/06/26 12:38:35;;;;;;;3.90;2.53;;;30.50;37.20;;;;;;5056055;28;20029;-73
2022/06/26 12:41:16;;;;;;;4.40;2.83;;;30.60;36.70;;;;;;5056096;28;20071;-73
2022/06/26 12:43:55;;;;;;;3.72;2.92;;;30.40;36.70;;;;;;5056151;28;20029;-73
2022/06/26 12:46:21;;;;;;;3.83;2.80;;;30.50;37.40;;;;;;5055493;28;20032;-73
2022/06/26 12:48:47;;;;;;;2.80;2.60;;;30.80;37.40;;;;;;5055870;28;20480;-73
2022/06/26 12:51:14;;;;;;;5.00;2.72;;;30.70;37.80;;;;;;5055898;28;20052;-73
2022/06/26 12:53:41;;;;;;;3.75;2.72;;;30.70;37.40;;;;;;5055860;28;20056;-72
2022/06/26 12:56:08;;;;;;;5.25;3.08;;;30.70;37.30;;;;;;5073119;28;20036;-72
2022/06/26 12:58:33;;;;;;;3.55;3.00;;;30.60;37.50;;;;;;5075710;28;20020;-73